Chicago, IL (60634)

11:01 PM CST on December 09, 2016 (GMT -0600)
Dunning | | Change Station
Active Advisory: Winter Storm Watch

Elev 656 ft 41.94 °N, 87.82 °W | Updated 14 seconds ago

Mostly Cloudy
Mostly Cloudy
18.7 °F
Feels Like 19 °F
N
2.0
Wind Variable Wind from West

Today
High -- | Low -- °F
--% Chance of Precip.
Yesterday
High -- | Low -- °F
Precip. -- in
Pressure 30.54 in
Visibility 10.0 miles
Clouds Few 3000 ft
Scattered Clouds 11000 ft
Mostly Cloudy 16000 ft
Windchill 19 °F
Dew Point 13 °F
Humidity 80%
Rainfall 0.00 in
Snow Depth Not available.
7:07 AM 4:19 PM
Waxing Gibbous, 80% visible
METAR KORD 100451Z 25005KT 10SM FEW030 SCT110 BKN160 M08/M11 A3050 RMK AO2 SLP340 T10781111
Pressure 30.54 in
Visibility 10.0 miles
Clouds Few 3000 ft
Scattered Clouds 11000 ft
Mostly Cloudy 16000 ft
Windchill 19 °F
Dew Point 13 °F
Humidity 80%
Rainfall 0.00 in
Snow Depth Not available.
7:07 AM 4:19 PM
Waxing Gibbous, 80% visible
METAR KORD 100451Z 25005KT 10SM FEW030 SCT110 BKN160 M08/M11 A3050 RMK AO2 SLP340 T10781111

10-Day Weather Forecast

Almanac

Astronomy

Dec. 09, 2016 Rise Set
Actual Time
Civil Twilight
Nautical Twilight
Astronomical Twilight
Moon
Length of Visible Light
Length of Day
Tomorrow will be .
, % of the Moon is Illuminated

Today's Extremes

State Highs State Lows

Community

WunderPhotos

Upload Photos

1,956,529 photos uploaded!

WunderBlog® & News

Nearby

Air Quality

  Air Quality AQ Index Pollutant
Not available.

Snow Depth

Station Depth Elevation

Earthquake Activity

City Distance Mag. Time & Date
Minimum magnitude displayed is 2.5.

Coastal Water Temperatures

Place Temperature

Stations

Nearby Weather Stations

Station Location Temp. Windchill Dew Point Humidity Wind Precip. Elev Updated Type
                   

Watches & Warnings

Winter Storm Watch
Issued: 9:21 PM CST Dec. 9, 2016 – National Weather Service

... Winter Storm Watch remains in effect from Saturday evening
through late Sunday night...

* timing... snow will develop over the area by early Saturday
evening and continue through Sunday evening.

* Snow accumulations... in excess of 6 inches possible.

* Main impact... the potential of snow covered roads and low
visibilities may make travel hazardous.

Precautionary/preparedness actions...

A Winter Storm Watch means there is a potential for significant
snow... sleet... or ice accumulations that may impact travel.
Continue to monitor the latest forecasts.